»·PEaware :: N6956H KMFR-KRDD

N6956H :: KMFR-KRDD

FLIGHT INFORMATION

Flight Status: Arrived
Operator: Privately registered:
United States
More flights under this callsign
Pilot: Joe C. (19058)
Aircraft: SOCATA TBM-900
(TBM9)
More flights by this aircraft type
Origin: KMFR Rogue Valley Intl-Medford
United States
Destination: KRDD Redding Mun
United States
More flights between these airports :: More routes between these airports
Route: JKSN1 OED V23 FOLDS RDD
File this flight plan on PilotEdge
Remarks:
Altitude:
(Current/Filed)
21,000ft
Speed:
(Current/Filed)
289kts
Departed: 28-Oct-18 11:06 AM
Arrived: 28-Oct-18 11:47 AM
Distance/Time
Traveled:
115nm/0:41
Distance/Time
To Go:
Arrived

Flight Plot

Page will automatically refresh every two minutes.

Flight plan parsing failed; only flown route is shown


Map Options




Map Legend


Flown Route
Filed Route
Departure Airport
Arrival Airport
Navaid (VOR, NDB)
Fix

Horizontal Profiles

Position Reports

Time Latitude Longitude Heading Altitude Ground
Speed
28-Oct-18 10:56 42.380360 -122.879046 67 1302ft 0kts
28-Oct-18 10:57 42.380360 -122.879046 67 1302ft 0kts
28-Oct-18 10:58 42.380360 -122.879046 67 1302ft 0kts
28-Oct-18 10:59 42.380360 -122.879046 67 1302ft 0kts
28-Oct-18 11:00 42.380360 -122.879047 67 1302ft 0kts
28-Oct-18 11:01 42.380360 -122.879046 67 1302ft 0kts
28-Oct-18 11:02 42.380360 -122.879046 67 1302ft 0kts
28-Oct-18 11:03 42.380360 -122.879046 67 1302ft 0kts
28-Oct-18 11:03 42.380360 -122.879046 67 1302ft 0kts
28-Oct-18 11:05 42.378524 -122.876684 155 1305ft 18kts
28-Oct-18 11:05 42.373598 -122.874132 159 1310ft 26kts
28-Oct-18 11:07 42.366110 -122.870209 157 1322ft 24kts
28-Oct-18 11:07 42.363585 -122.868618 92 1325ft 1kts
28-Oct-18 11:09 42.383891 -122.877927 332 1884ft 134kts
28-Oct-18 11:09 42.409288 -122.897340 342 3707ft 124kts
28-Oct-18 11:11 42.448567 -122.904413 320 5847ft 122kts
28-Oct-18 11:11 42.476859 -122.912697 343 7241ft 132kts
28-Oct-18 11:12 42.514144 -122.907120 43 8743ft 160kts
28-Oct-18 11:13 42.498807 -122.870192 194 10185ft 130kts
28-Oct-18 11:14 42.464382 -122.877373 199 11902ft 126kts
28-Oct-18 11:15 42.428419 -122.885947 199 13592ft 148kts
28-Oct-18 11:16 42.387108 -122.895865 199 15450ft 151kts
28-Oct-18 11:17 42.344609 -122.898713 189 17183ft 159kts
28-Oct-18 11:18 42.300310 -122.894120 190 18958ft 161kts
28-Oct-18 11:19 42.255757 -122.889475 191 20658ft 162kts
28-Oct-18 11:20 42.206190 -122.884438 189 21168ft 206kts
28-Oct-18 11:21 42.144686 -122.877954 187 21151ft 233kts
28-Oct-18 11:22 42.078538 -122.871067 187 21145ft 242kts
28-Oct-18 11:23 42.016927 -122.864673 187 21141ft 245kts
28-Oct-18 11:24 41.948858 -122.857626 187 21140ft 246kts
28-Oct-18 11:25 41.880905 -122.850614 187 21152ft 246kts
28-Oct-18 11:26 41.812236 -122.843546 187 21151ft 248kts
28-Oct-18 11:27 41.743698 -122.836500 187 21151ft 248kts
28-Oct-18 11:28 41.674872 -122.829440 187 21150ft 248kts
28-Oct-18 11:29 41.606046 -122.822394 187 21151ft 248kts
28-Oct-18 11:30 41.537300 -122.815375 187 21149ft 248kts
28-Oct-18 11:31 41.468054 -122.808296 186 21150ft 253kts
28-Oct-18 11:32 41.396598 -122.783665 173 20463ft 285kts
28-Oct-18 11:33 41.318719 -122.750161 171 18708ft 302kts
28-Oct-18 11:34 41.238263 -122.715645 170 16929ft 306kts
28-Oct-18 11:35 41.159403 -122.681882 169 15122ft 293kts
28-Oct-18 11:36 41.087507 -122.650487 170 14997ft 256kts
28-Oct-18 11:37 41.020929 -122.622370 170 14593ft 260kts
28-Oct-18 11:38 40.947610 -122.591359 168 12734ft 287kts
28-Oct-18 11:39 40.872723 -122.559669 167 10850ft 264kts
28-Oct-18 11:40 40.811374 -122.533857 166 8581ft 222kts
28-Oct-18 11:41 40.754381 -122.508569 148 7590ft 228kts
28-Oct-18 11:42 40.768691 -122.429464 74 6634ft 274kts
28-Oct-18 11:43 40.786006 -122.334721 86 5794ft 251kts
28-Oct-18 11:44 40.755358 -122.285855 204 5620ft 221kts
28-Oct-18 11:45 40.696223 -122.295706 194 4272ft 211kts
28-Oct-18 11:46 40.642679 -122.295665 175 3725ft 203kts
28-Oct-18 11:47 40.584876 -122.291299 180 2246ft 205kts
28-Oct-18 11:48 40.532764 -122.294457 180 977ft 157kts
28-Oct-18 11:49 40.507871 -122.295095 346 494ft 15kts
28-Oct-18 11:50 40.508540 -122.296436 293 495ft 13kts
28-Oct-18 11:51 40.508268 -122.298803 271 495ft 6kts
28-Oct-18 11:52 40.508513 -122.299177 353 495ft 0kts
28-Oct-18 11:53 40.508513 -122.299177 353 495ft 0kts
28-Oct-18 11:54 40.508513 -122.299177 353 495ft 0kts

Navigation Log

Ident Type
Flight plan parsing failed, navigation log unavailable